sensor_id;sensor_type;location;lat;lon;timestamp;temperature;humidity
6879;DHT22;3478;51.462;7.338;2023-03-08T00:04:15;2.00;99.90
6879;DHT22;3478;51.462;7.338;2023-03-08T00:09:16;2.00;99.90
6879;DHT22;3478;51.462;7.338;2023-03-08T00:14:18;2.10;93.70
6879;DHT22;3478;51.462;7.338;2023-03-08T00:19:23;2.10;74.00
6879;DHT22;3478;51.462;7.338;2023-03-08T00:24:25;2.10;60.60
6879;DHT22;3478;51.462;7.338;2023-03-08T00:29:26;2.00;52.20
6879;DHT22;3478;51.462;7.338;2023-03-08T00:34:30;2.10;96.40
6879;DHT22;3478;51.462;7.338;2023-03-08T00:39:32;2.00;17.40
6879;DHT22;3478;51.462;7.338;2023-03-08T00:44:33;2.00;49.80
6879;DHT22;3478;51.462;7.338;2023-03-08T00:49:37;2.10;60.90
6879;DHT22;3478;51.462;7.338;2023-03-08T00:54:38;2.10;34.90
6879;DHT22;3478;51.462;7.338;2023-03-08T00:59:40;2.00;32.90
6879;DHT22;3478;51.462;7.338;2023-03-08T01:04:43;2.00;62.40
6879;DHT22;3478;51.462;7.338;2023-03-08T01:09:45;2.00;71.60
6879;DHT22;3478;51.462;7.338;2023-03-08T01:14:47;2.00;53.90
6879;DHT22;3478;51.462;7.338;2023-03-08T01:19:50;2.00;69.00
6879;DHT22;3478;51.462;7.338;2023-03-08T01:24:52;2.00;41.20
6879;DHT22;3478;51.462;7.338;2023-03-08T01:29:54;2.10;68.20
6879;DHT22;3478;51.462;7.338;2023-03-08T01:34:57;2.10;36.80
6879;DHT22;3478;51.462;7.338;2023-03-08T01:40:04;2.20;48.00
6879;DHT22;3478;51.462;7.338;2023-03-08T01:50:44;2.20;35.10
6879;DHT22;3478;51.462;7.338;2023-03-08T01:55:46;2.30;46.00
6879;DHT22;3478;51.462;7.338;2023-03-08T02:00:47;2.30;34.10
6879;DHT22;3478;51.462;7.338;2023-03-08T02:05:51;2.30;37.60
6879;DHT22;3478;51.462;7.338;2023-03-08T02:10:53;2.10;19.30
6879;DHT22;3478;51.462;7.338;2023-03-08T02:15:57;2.10;50.60
6879;DHT22;3478;51.462;7.338;2023-03-08T02:21:01;2.10;68.70
6879;DHT22;3478;51.462;7.338;2023-03-08T02:26:04;2.10;47.10
6879;DHT22;3478;51.462;7.338;2023-03-08T02:31:06;2.20;45.00
6879;DHT22;3478;51.462;7.338;2023-03-08T02:36:08;2.20;52.10
6879;DHT22;3478;51.462;7.338;2023-03-08T02:41:12;2.20;35.40
6879;DHT22;3478;51.462;7.338;2023-03-08T02:46:13;2.20;40.10
6879;DHT22;3478;51.462;7.338;2023-03-08T02:51:15;2.20;31.30
6879;DHT22;3478;51.462;7.338;2023-03-08T02:56:18;2.20;30.90
6879;DHT22;3478;51.462;7.338;2023-03-08T03:01:20;2.20;26.70
6879;DHT22;3478;51.462;7.338;2023-03-08T03:06:22;2.20;26.00
6879;DHT22;3478;51.462;7.338;2023-03-08T03:11:25;2.20;15.80
6879;DHT22;3478;51.462;7.338;2023-03-08T03:16:27;2.20;33.20
6879;DHT22;3478;51.462;7.338;2023-03-08T03:21:29;2.20;33.00
6879;DHT22;3478;51.462;7.338;2023-03-08T03:26:33;2.10;33.20
6879;DHT22;3478;51.462;7.338;2023-03-08T03:31:35;2.10;24.40
6879;DHT22;3478;51.462;7.338;2023-03-08T03:36:37;2.10;31.70
6879;DHT22;3478;51.462;7.338;2023-03-08T03:41:40;2.10;16.20
6879;DHT22;3478;51.462;7.338;2023-03-08T03:46:42;2.10;32.40
6879;DHT22;3478;51.462;7.338;2023-03-08T03:51:44;2.10;26.80
6879;DHT22;3478;51.462;7.338;2023-03-08T03:56:47;2.20;27.10
6879;DHT22;3478;51.462;7.338;2023-03-08T04:01:49;2.30;38.90
6879;DHT22;3478;51.462;7.338;2023-03-08T04:06:51;2.30;19.50
6879;DHT22;3478;51.462;7.338;2023-03-08T04:11:54;2.40;28.10
6879;DHT22;3478;51.462;7.338;2023-03-08T04:16:56;2.40;23.80
6879;DHT22;3478;51.462;7.338;2023-03-08T04:21:57;2.40;25.10
6879;DHT22;3478;51.462;7.338;2023-03-08T04:27:01;2.30;28.20
6879;DHT22;3478;51.462;7.338;2023-03-08T04:32:03;2.30;37.40
6879;DHT22;3478;51.462;7.338;2023-03-08T04:37:05;2.30;29.60
6879;DHT22;3478;51.462;7.338;2023-03-08T04:42:08;2.30;40.00
6879;DHT22;3478;51.462;7.338;2023-03-08T04:47:10;2.30;48.80
6879;DHT22;3478;51.462;7.338;2023-03-08T04:52:12;2.30;44.20
6879;DHT22;3478;51.462;7.338;2023-03-08T04:57:15;2.30;43.20
6879;DHT22;3478;51.462;7.338;2023-03-08T05:02:17;2.30;38.20
6879;DHT22;3478;51.462;7.338;2023-03-08T05:07:18;2.30;35.40
6879;DHT22;3478;51.462;7.338;2023-03-08T05:12:21;2.30;39.20
6879;DHT22;3478;51.462;7.338;2023-03-08T05:17:23;2.30;55.40
6879;DHT22;3478;51.462;7.338;2023-03-08T05:22:25;2.30;42.40
6879;DHT22;3478;51.462;7.338;2023-03-08T05:27:32;2.30;48.00
6879;DHT22;3478;51.462;7.338;2023-03-08T05:32:36;2.30;41.20
6879;DHT22;3478;51.462;7.338;2023-03-08T05:37:38;2.30;29.60
6879;DHT22;3478;51.462;7.338;2023-03-08T05:42:41;2.30;28.70
6879;DHT22;3478;51.462;7.338;2023-03-08T05:47:43;2.30;29.40
6879;DHT22;3478;51.462;7.338;2023-03-08T05:52:45;2.20;12.70
6879;DHT22;3478;51.462;7.338;2023-03-08T05:57:49;2.20;25.40
6879;DHT22;3478;51.462;7.338;2023-03-08T06:02:51;2.10;10.70
6879;DHT22;3478;51.462;7.338;2023-03-08T06:07:52;2.00;1.00
6879;DHT22;3478;51.462;7.338;2023-03-08T06:12:58;2.00;1.00
6879;DHT22;3478;51.462;7.338;2023-03-08T06:18:00;2.00;1.00
6879;DHT22;3478;51.462;7.338;2023-03-08T06:23:01;2.00;1.00
6879;DHT22;3478;51.462;7.338;2023-03-08T06:28:05;2.00;1.00
6879;DHT22;3478;51.462;7.338;2023-03-08T06:33:07;1.90;1.00
6879;DHT22;3478;51.462;7.338;2023-03-08T06:38:09;2.00;1.00
6879;DHT22;3478;51.462;7.338;2023-03-08T06:43:12;1.90;4.00
6879;DHT22;3478;51.462;7.338;2023-03-08T06:48:14;1.90;38.90
6879;DHT22;3478;51.462;7.338;2023-03-08T06:53:16;1.90;41.80
6879;DHT22;3478;51.462;7.338;2023-03-08T06:58:19;1.80;31.40
6879;DHT22;3478;51.462;7.338;2023-03-08T07:03:21;1.80;30.00
6879;DHT22;3478;51.462;7.338;2023-03-08T07:08:23;1.80;16.40
6879;DHT22;3478;51.462;7.338;2023-03-08T07:13:27;1.80;1.00
6879;DHT22;3478;51.462;7.338;2023-03-08T07:18:29;1.80;13.00
6879;DHT22;3478;51.462;7.338;2023-03-08T07:23:31;1.70;1.00
6879;DHT22;3478;51.462;7.338;2023-03-08T07:28:34;1.60;1.00
6879;DHT22;3478;51.462;7.338;2023-03-08T07:33:36;1.60;1.00
6879;DHT22;3478;51.462;7.338;2023-03-08T07:38:38;1.40;1.00
6879;DHT22;3478;51.462;7.338;2023-03-08T07:43:41;1.50;1.00
6879;DHT22;3478;51.462;7.338;2023-03-08T07:48:43;1.40;1.00
6879;DHT22;3478;51.462;7.338;2023-03-08T07:53:45;1.40;21.80
6879;DHT22;3478;51.462;7.338;2023-03-08T07:58:48;1.50;8.60
6879;DHT22;3478;51.462;7.338;2023-03-08T08:03:50;1.40;1.00
6879;DHT22;3478;51.462;7.338;2023-03-08T08:08:51;1.40;12.00
6879;DHT22;3478;51.462;7.338;2023-03-08T08:13:56;1.50;8.60
6879;DHT22;3478;51.462;7.338;2023-03-08T08:18:58;1.50;5.50
6879;DHT22;3478;51.462;7.338;2023-03-08T08:24:00;1.50;1.00
6879;DHT22;3478;51.462;7.338;2023-03-08T08:29:03;1.40;8.20
6879;DHT22;3478;51.462;7.338;2023-03-08T08:34:05;1.50;33.50
6879;DHT22;3478;51.462;7.338;2023-03-08T08:39:07;1.40;14.60
6879;DHT22;3478;51.462;7.338;2023-03-08T08:44:10;1.40;18.20
6879;DHT22;3478;51.462;7.338;2023-03-08T08:49:12;1.40;61.10
6879;DHT22;3478;51.462;7.338;2023-03-08T08:54:14;1.30;71.80
6879;DHT22;3478;51.462;7.338;2023-03-08T08:59:17;1.40;91.30
6879;DHT22;3478;51.462;7.338;2023-03-08T09:04:19;1.40;99.90
6879;DHT22;3478;51.462;7.338;2023-03-08T09:09:21;1.50;99.90
6879;DHT22;3478;51.462;7.338;2023-03-08T09:14:24;1.50;19.70
6879;DHT22;3478;51.462;7.338;2023-03-08T09:19:26;1.60;72.20
6879;DHT22;3478;51.462;7.338;2023-03-08T09:24:28;1.60;24.40
6879;DHT22;3478;51.462;7.338;2023-03-08T09:29:31;1.60;29.70
6879;DHT22;3478;51.462;7.338;2023-03-08T09:34:34;1.50;49.80
6879;DHT22;3478;51.462;7.338;2023-03-08T09:39:36;1.60;64.90
6879;DHT22;3478;51.462;7.338;2023-03-08T09:44:58;1.60;49.40
6879;DHT22;3478;51.462;7.338;2023-03-08T09:50:11;1.50;37.40
6879;DHT22;3478;51.462;7.338;2023-03-08T09:55:19;1.50;44.50
6879;DHT22;3478;51.462;7.338;2023-03-08T10:00:28;1.70;44.60
6879;DHT22;3478;51.462;7.338;2023-03-08T10:05:35;1.70;31.70
6879;DHT22;3478;51.462;7.338;2023-03-08T10:10:44;1.70;17.50
6879;DHT22;3478;51.462;7.338;2023-03-08T10:15:52;1.80;20.20
6879;DHT22;3478;51.462;7.338;2023-03-08T10:20:55;1.90;6.60
6879;DHT22;3478;51.462;7.338;2023-03-08T10:25:59;2.00;1.00
6879;DHT22;3478;51.462;7.338;2023-03-08T10:31:21;2.10;1.00
6879;DHT22;3478;51.462;7.338;2023-03-08T10:36:24;2.10;1.00
6879;DHT22;3478;51.462;7.338;2023-03-08T10:41:26;2.20;1.00
6879;DHT22;3478;51.462;7.338;2023-03-08T10:46:33;2.20;1.00
6879;DHT22;3478;51.462;7.338;2023-03-08T10:51:53;2.20;1.00
6879;DHT22;3478;51.462;7.338;2023-03-08T10:56:57;2.10;1.00
6879;DHT22;3478;51.462;7.338;2023-03-08T11:02:15;2.20;1.00
6879;DHT22;3478;51.462;7.338;2023-03-08T11:07:21;2.20;1.00
6879;DHT22;3478;51.462;7.338;2023-03-08T11:12:24;2.50;1.00
6879;DHT22;3478;51.462;7.338;2023-03-08T11:17:31;2.60;1.00
6879;DHT22;3478;51.462;7.338;2023-03-08T11:22:58;2.70;1.00
6879;DHT22;3478;51.462;7.338;2023-03-08T11:28:27;2.70;1.00
6879;DHT22;3478;51.462;7.338;2023-03-08T11:33:57;2.80;1.00
6879;DHT22;3478;51.462;7.338;2023-03-08T11:39:07;2.90;1.00
6879;DHT22;3478;51.462;7.338;2023-03-08T11:44:38;3.00;1.00
6879;DHT22;3478;51.462;7.338;2023-03-08T11:49:53;2.90;1.00
6879;DHT22;3478;51.462;7.338;2023-03-08T11:55:21;2.90;1.00
6879;DHT22;3478;51.462;7.338;2023-03-08T12:00:29;3.00;1.00
6879;DHT22;3478;51.462;7.338;2023-03-08T12:05:37;3.00;1.00
6879;DHT22;3478;51.462;7.338;2023-03-08T12:10:44;3.00;1.00
6879;DHT22;3478;51.462;7.338;2023-03-08T12:15:53;2.90;1.00
6879;DHT22;3478;51.462;7.338;2023-03-08T12:21:07;3.00;1.00
6879;DHT22;3478;51.462;7.338;2023-03-08T12:26:16;2.90;1.00
6879;DHT22;3478;51.462;7.338;2023-03-08T12:31:25;2.70;1.00
6879;DHT22;3478;51.462;7.338;2023-03-08T12:36:40;2.80;1.00
6879;DHT22;3478;51.462;7.338;2023-03-08T12:41:42;2.90;1.00
6879;DHT22;3478;51.462;7.338;2023-03-08T12:46:46;2.90;1.00
6879;DHT22;3478;51.462;7.338;2023-03-08T12:51:58;3.00;1.00
6879;DHT22;3478;51.462;7.338;2023-03-08T12:57:01;2.90;1.00
6879;DHT22;3478;51.462;7.338;2023-03-08T13:02:26;2.90;1.00
6879;DHT22;3478;51.462;7.338;2023-03-08T13:07:35;2.90;1.00
6879;DHT22;3478;51.462;7.338;2023-03-08T13:12:55;2.80;1.00
6879;DHT22;3478;51.462;7.338;2023-03-08T13:18:00;2.80;1.00
6879;DHT22;3478;51.462;7.338;2023-03-08T13:23:10;2.80;1.00
6879;DHT22;3478;51.462;7.338;2023-03-08T13:28:20;2.90;1.00
6879;DHT22;3478;51.462;7.338;2023-03-08T13:33:25;3.00;1.00
6879;DHT22;3478;51.462;7.338;2023-03-08T13:38:31;3.00;1.00
6879;DHT22;3478;51.462;7.338;2023-03-08T13:43:34;3.10;1.00
6879;DHT22;3478;51.462;7.338;2023-03-08T13:48:36;3.10;1.00
6879;DHT22;3478;51.462;7.338;2023-03-08T13:53:41;3.00;1.00
6879;DHT22;3478;51.462;7.338;2023-03-08T13:58:45;3.00;1.00
6879;DHT22;3478;51.462;7.338;2023-03-08T14:03:50;3.10;1.00
6879;DHT22;3478;51.462;7.338;2023-03-08T14:08:54;3.00;1.00
6879;DHT22;3478;51.462;7.338;2023-03-08T14:14:01;3.00;1.00
6879;DHT22;3478;51.462;7.338;2023-03-08T14:19:09;3.00;1.00
6879;DHT22;3478;51.462;7.338;2023-03-08T14:24:19;3.00;1.00
6879;DHT22;3478;51.462;7.338;2023-03-08T14:29:22;3.00;1.00
6879;DHT22;3478;51.462;7.338;2023-03-08T14:34:26;2.90;1.00
6879;DHT22;3478;51.462;7.338;2023-03-08T14:39:31;2.90;1.00
6879;DHT22;3478;51.462;7.338;2023-03-08T14:44:34;3.00;1.00
6879;DHT22;3478;51.462;7.338;2023-03-08T14:49:35;2.80;1.00
6879;DHT22;3478;51.462;7.338;2023-03-08T14:54:39;2.70;1.00
6879;DHT22;3478;51.462;7.338;2023-03-08T14:59:41;2.80;1.00
6879;DHT22;3478;51.462;7.338;2023-03-08T15:04:44;2.80;1.00
6879;DHT22;3478;51.462;7.338;2023-03-08T15:09:49;2.80;1.00
6879;DHT22;3478;51.462;7.338;2023-03-08T15:14:51;2.80;1.00
6879;DHT22;3478;51.462;7.338;2023-03-08T15:19:53;2.70;1.00
6879;DHT22;3478;51.462;7.338;2023-03-08T15:24:56;2.80;1.00
6879;DHT22;3478;51.462;7.338;2023-03-08T15:29:58;2.80;1.00
6879;DHT22;3478;51.462;7.338;2023-03-08T15:35:00;2.80;1.00
6879;DHT22;3478;51.462;7.338;2023-03-08T15:40:03;2.80;1.00
6879;DHT22;3478;51.462;7.338;2023-03-08T15:45:09;2.90;1.00
6879;DHT22;3478;51.462;7.338;2023-03-08T15:50:14;3.00;1.00
6879;DHT22;3478;51.462;7.338;2023-03-08T15:55:17;2.90;1.00
6879;DHT22;3478;51.462;7.338;2023-03-08T16:00:21;2.90;1.00
6879;DHT22;3478;51.462;7.338;2023-03-08T16:05:23;2.90;1.00
6879;DHT22;3478;51.462;7.338;2023-03-08T16:10:28;2.90;1.00
6879;DHT22;3478;51.462;7.338;2023-03-08T16:15:30;2.90;1.00
6879;DHT22;3478;51.462;7.338;2023-03-08T16:20:32;2.80;1.00
6879;DHT22;3478;51.462;7.338;2023-03-08T16:25:35;2.90;1.00
6879;DHT22;3478;51.462;7.338;2023-03-08T16:30:37;3.00;1.00
6879;DHT22;3478;51.462;7.338;2023-03-08T16:35:47;2.90;1.00
6879;DHT22;3478;51.462;7.338;2023-03-08T16:40:50;2.80;1.00
6879;DHT22;3478;51.462;7.338;2023-03-08T16:45:53;2.90;1.00
6879;DHT22;3478;51.462;7.338;2023-03-08T16:50:57;2.80;1.00
6879;DHT22;3478;51.462;7.338;2023-03-08T16:56:00;2.70;1.00
6879;DHT22;3478;51.462;7.338;2023-03-08T17:01:09;2.70;1.00
6879;DHT22;3478;51.462;7.338;2023-03-08T17:06:13;2.70;1.00
6879;DHT22;3478;51.462;7.338;2023-03-08T17:11:19;2.70;1.00
6879;DHT22;3478;51.462;7.338;2023-03-08T17:16:24;2.60;1.00
6879;DHT22;3478;51.462;7.338;2023-03-08T17:21:27;2.50;5.40
6879;DHT22;3478;51.462;7.338;2023-03-08T17:26:33;2.50;28.90
6879;DHT22;3478;51.462;7.338;2023-03-08T17:31:35;2.60;20.30
6879;DHT22;3478;51.462;7.338;2023-03-08T17:36:37;2.50;16.90
6879;DHT22;3478;51.462;7.338;2023-03-08T17:41:40;2.50;48.20
6879;DHT22;3478;51.462;7.338;2023-03-08T17:46:42;2.50;61.40
6879;DHT22;3478;51.462;7.338;2023-03-08T17:51:48;2.50;83.40
6879;DHT22;3478;51.462;7.338;2023-03-08T17:56:51;2.50;60.90
6879;DHT22;3478;51.462;7.338;2023-03-08T18:01:53;2.40;80.20
6879;DHT22;3478;51.462;7.338;2023-03-08T18:06:55;2.50;97.30
6879;DHT22;3478;51.462;7.338;2023-03-08T18:11:58;2.50;70.00
6879;DHT22;3478;51.462;7.338;2023-03-08T18:17:00;2.50;80.00
6879;DHT22;3478;51.462;7.338;2023-03-08T18:22:02;2.50;37.50
6879;DHT22;3478;51.462;7.338;2023-03-08T18:27:06;2.50;49.30
6879;DHT22;3478;51.462;7.338;2023-03-08T18:32:07;2.50;73.00
6879;DHT22;3478;51.462;7.338;2023-03-08T18:37:10;2.50;76.20
6879;DHT22;3478;51.462;7.338;2023-03-08T18:42:13;2.50;57.30
6879;DHT22;3478;51.462;7.338;2023-03-08T18:47:15;2.40;77.30
6879;DHT22;3478;51.462;7.338;2023-03-08T18:52:17;2.50;99.90
6879;DHT22;3478;51.462;7.338;2023-03-08T18:57:20;2.40;93.40
6879;DHT22;3478;51.462;7.338;2023-03-08T19:02:22;2.50;87.20
6879;DHT22;3478;51.462;7.338;2023-03-08T19:07:24;2.50;76.90
6879;DHT22;3478;51.462;7.338;2023-03-08T19:12:28;2.40;97.20
6879;DHT22;3478;51.462;7.338;2023-03-08T19:17:29;2.40;99.90
6879;DHT22;3478;51.462;7.338;2023-03-08T19:22:31;2.40;99.90
6879;DHT22;3478;51.462;7.338;2023-03-08T19:27:34;2.40;99.90
6879;DHT22;3478;51.462;7.338;2023-03-08T19:32:36;2.30;99.90
6879;DHT22;3478;51.462;7.338;2023-03-08T19:37:38;2.10;99.90
6879;DHT22;3478;51.462;7.338;2023-03-08T19:42:42;2.10;99.90
6879;DHT22;3478;51.462;7.338;2023-03-08T19:47:43;2.10;99.90
6879;DHT22;3478;51.462;7.338;2023-03-08T19:52:45;2.10;99.90
6879;DHT22;3478;51.462;7.338;2023-03-08T19:57:48;2.10;99.90
6879;DHT22;3478;51.462;7.338;2023-03-08T20:02:50;2.20;99.90
6879;DHT22;3478;51.462;7.338;2023-03-08T20:07:52;2.20;99.90
6879;DHT22;3478;51.462;7.338;2023-03-08T20:12:55;2.20;99.90
6879;DHT22;3478;51.462;7.338;2023-03-08T20:17:57;2.20;99.90
6879;DHT22;3478;51.462;7.338;2023-03-08T20:22:59;2.20;99.90
6879;DHT22;3478;51.462;7.338;2023-03-08T20:28:02;2.30;99.90
6879;DHT22;3478;51.462;7.338;2023-03-08T20:33:04;2.30;99.90
6879;DHT22;3478;51.462;7.338;2023-03-08T20:38:06;2.30;99.90
6879;DHT22;3478;51.462;7.338;2023-03-08T20:43:10;2.30;99.90
6879;DHT22;3478;51.462;7.338;2023-03-08T20:48:12;2.30;99.90
6879;DHT22;3478;51.462;7.338;2023-03-08T20:53:14;2.40;99.90
6879;DHT22;3478;51.462;7.338;2023-03-08T20:58:17;2.40;99.90
6879;DHT22;3478;51.462;7.338;2023-03-08T21:03:19;2.40;99.90
6879;DHT22;3478;51.462;7.338;2023-03-08T21:08:21;2.40;99.90
6879;DHT22;3478;51.462;7.338;2023-03-08T21:13:25;2.30;99.90
6879;DHT22;3478;51.462;7.338;2023-03-08T21:18:27;2.40;99.90
6879;DHT22;3478;51.462;7.338;2023-03-08T21:23:28;2.30;99.90
6879;DHT22;3478;51.462;7.338;2023-03-08T21:28:32;2.40;99.90
6879;DHT22;3478;51.462;7.338;2023-03-08T21:33:33;2.40;99.90
6879;DHT22;3478;51.462;7.338;2023-03-08T21:38:35;2.40;99.90
6879;DHT22;3478;51.462;7.338;2023-03-08T21:43:38;2.40;99.90
6879;DHT22;3478;51.462;7.338;2023-03-08T21:48:41;2.40;99.90
6879;DHT22;3478;51.462;7.338;2023-03-08T21:53:43;2.40;99.90
6879;DHT22;3478;51.462;7.338;2023-03-08T21:58:46;2.40;99.90
6879;DHT22;3478;51.462;7.338;2023-03-08T22:03:49;2.40;99.90
6879;DHT22;3478;51.462;7.338;2023-03-08T22:08:52;2.40;99.90
6879;DHT22;3478;51.462;7.338;2023-03-08T22:13:56;2.30;99.90
6879;DHT22;3478;51.462;7.338;2023-03-08T22:19:00;2.30;99.90
6879;DHT22;3478;51.462;7.338;2023-03-08T22:24:03;2.30;99.90
6879;DHT22;3478;51.462;7.338;2023-03-08T22:29:06;2.40;99.90
6879;DHT22;3478;51.462;7.338;2023-03-08T22:34:08;2.40;99.90
6879;DHT22;3478;51.462;7.338;2023-03-08T22:39:10;2.40;99.90
6879;DHT22;3478;51.462;7.338;2023-03-08T22:44:14;2.30;99.90
6879;DHT22;3478;51.462;7.338;2023-03-08T22:49:16;2.30;99.90
6879;DHT22;3478;51.462;7.338;2023-03-08T22:54:19;2.30;99.90
6879;DHT22;3478;51.462;7.338;2023-03-08T22:59:25;2.20;99.90
6879;DHT22;3478;51.462;7.338;2023-03-08T23:04:27;2.20;99.90
6879;DHT22;3478;51.462;7.338;2023-03-08T23:09:28;2.20;99.90
6879;DHT22;3478;51.462;7.338;2023-03-08T23:14:35;2.20;99.90
6879;DHT22;3478;51.462;7.338;2023-03-08T23:19:36;2.20;99.90
6879;DHT22;3478;51.462;7.338;2023-03-08T23:24:38;2.20;99.90
6879;DHT22;3478;51.462;7.338;2023-03-08T23:29:41;2.30;99.90
6879;DHT22;3478;51.462;7.338;2023-03-08T23:34:43;2.20;99.90
6879;DHT22;3478;51.462;7.338;2023-03-08T23:39:45;2.30;99.90
6879;DHT22;3478;51.462;7.338;2023-03-08T23:44:48;2.30;99.90
6879;DHT22;3478;51.462;7.338;2023-03-08T23:49:50;2.30;99.90
6879;DHT22;3478;51.462;7.338;2023-03-08T23:54:53;2.40;99.90
6879;DHT22;3478;51.462;7.338;2023-03-08T23:59:56;2.40;99.90
